Time;durP1;ratioP1;P1;durP2;ratioP2;P2;SDS_P1;SDS_P2;PMS_P1;PMS_P2;Temp;Humidity;BMP_temperature;BMP_pressure;BME280_temperature;BME280_humidity;BME280_pressure;Samples;Min_cycle;Max_cycle;Signal;HPM_P1;HPM_P2
2023/01/31 00:02:24;;;;;;;10.57;2.50;;;;;;;;;;5016807;28;20643;-70
2023/01/31 00:04:49;;;;;;;10.87;2.53;;;;;;;;;;5018908;28;20208;-70
2023/01/31 00:07:14;;;;;;;10.30;2.83;;;;;;;;;;5019682;28;20212;-70
2023/01/31 00:09:40;;;;;;;11.17;2.97;;;;;;;;;;5030218;28;20274;-70
2023/01/31 00:12:05;;;;;;;14.67;3.00;;;;;;;;;;5033104;28;20690;-70
2023/01/31 00:14:30;;;;;;;14.00;2.87;;;;;;;;;;5023363;28;20216;-70
2023/01/31 00:16:56;;;;;;;12.20;3.13;;;;;;;;;;5012948;28;20271;-70
2023/01/31 00:19:21;;;;;;;13.77;2.53;;;;;;;;;;5013185;28;20307;-70
2023/01/31 00:21:46;;;;;;;12.23;3.30;;;;;;;;;;5013537;28;20220;-70
2023/01/31 00:24:12;;;;;;;12.27;2.90;;;;;;;;;;5012135;28;20632;-70
2023/01/31 00:26:38;;;;;;;11.40;2.80;;;;;;;;;;5013575;28;20207;-70
2023/01/31 00:29:03;;;;;;;11.10;2.67;;;;;;;;;;5013076;28;20631;-70
2023/01/31 00:31:29;;;;;;;11.30;2.70;;;;;;;;;;5012709;28;20204;-70
2023/01/31 00:33:55;;;;;;;11.67;2.43;;;;;;;;;;5013295;28;20255;-70
2023/01/31 00:36:21;;;;;;;11.47;3.13;;;;;;;;;;5013008;28;20220;-70
2023/01/31 00:38:47;;;;;;;10.37;2.80;;;;;;;;;;5012278;28;20228;-70
2023/01/31 00:41:12;;;;;;;9.10;2.53;;;;;;;;;;5012936;28;20220;-70
2023/01/31 00:43:38;;;;;;;9.20;2.70;;;;;;;;;;5013076;28;20266;-70
2023/01/31 00:46:03;;;;;;;10.83;2.57;;;;;;;;;;5012053;28;20641;-70
2023/01/31 00:48:28;;;;;;;11.83;3.30;;;;;;;;;;5013427;28;20287;-70
2023/01/31 00:50:54;;;;;;;14.53;2.90;;;;;;;;;;5025797;28;20277;-71
2023/01/31 00:53:22;;;;;;;12.53;2.87;;;;;;;;;;5031379;28;20675;-69
2023/01/31 00:55:49;;;;;;;11.10;3.03;;;;;;;;;;5032557;28;20675;-70
2023/01/31 00:58:14;;;;;;;10.40;2.93;;;;;;;;;;5014736;28;20255;-70
2023/01/31 01:00:40;;;;;;;12.03;3.43;;;;;;;;;;5013511;28;20233;-70
2023/01/31 01:03:05;;;;;;;10.97;3.30;;;;;;;;;;4994635;28;20209;-70
2023/01/31 01:05:30;;;;;;;10.63;2.93;;;;;;;;;;5013069;28;20212;-70
2023/01/31 01:07:55;;;;;;;13.67;3.17;;;;;;;;;;5009532;28;20267;-70
2023/01/31 01:10:21;;;;;;;10.97;3.07;;;;;;;;;;5009725;28;20737;-70
2023/01/31 01:12:46;;;;;;;11.93;2.93;;;;;;;;;;4994030;28;20217;-70
2023/01/31 01:15:11;;;;;;;10.77;2.80;;;;;;;;;;5007839;28;20215;-69
2023/01/31 01:17:37;;;;;;;14.13;3.03;;;;;;;;;;5012636;28;20235;-70
2023/01/31 01:20:02;;;;;;;11.73;2.53;;;;;;;;;;5011603;28;20225;-69
2023/01/31 01:22:29;;;;;;;10.67;3.10;;;;;;;;;;5012580;28;20204;-70
2023/01/31 01:24:54;;;;;;;12.30;2.70;;;;;;;;;;4995286;28;20600;-70
2023/01/31 01:27:19;;;;;;;13.43;2.70;;;;;;;;;;5011460;28;20690;-70
2023/01/31 01:29:45;;;;;;;9.20;2.90;;;;;;;;;;5012798;28;20204;-70
2023/01/31 01:32:10;;;;;;;11.93;2.87;;;;;;;;;;5012136;28;20346;-69
2023/01/31 01:34:36;;;;;;;13.53;3.53;;;;;;;;;;5012030;28;20600;-70
2023/01/31 01:37:08;;;;;;;16.83;3.40;;;;;;;;;;5011943;28;20232;-69
2023/01/31 01:39:34;;;;;;;13.57;3.33;;;;;;;;;;5012664;28;20228;-70
2023/01/31 01:41:59;;;;;;;11.23;3.13;;;;;;;;;;5011671;28;20591;-70
2023/01/31 01:44:42;;;;;;;12.93;3.03;;;;;;;;;;5012096;28;20224;-70
2023/01/31 01:47:13;;;;;;;11.57;3.20;;;;;;;;;;5011925;28;20675;-70
2023/01/31 01:49:38;;;;;;;11.83;3.50;;;;;;;;;;5011740;28;20216;-70
2023/01/31 01:52:04;;;;;;;8.57;2.70;;;;;;;;;;5011857;28;20585;-69
2023/01/31 01:54:33;;;;;;;14.37;3.03;;;;;;;;;;4994929;28;20231;-70
2023/01/31 01:56:59;;;;;;;8.17;2.47;;;;;;;;;;4994147;28;20213;-70
2023/01/31 01:59:26;;;;;;;13.20;3.70;;;;;;;;;;4994335;28;20286;-69
2023/01/31 02:01:51;;;;;;;12.33;3.70;;;;;;;;;;5012111;28;20208;-70
2023/01/31 02:04:18;;;;;;;10.10;2.87;;;;;;;;;;4993685;28;20586;-69
2023/01/31 02:06:43;;;;;;;11.93;3.40;;;;;;;;;;4986024;28;20231;-70
2023/01/31 02:09:10;;;;;;;13.10;3.20;;;;;;;;;;4974104;28;20245;-69
2023/01/31 02:11:35;;;;;;;10.83;3.27;;;;;;;;;;4995029;28;20229;-69
2023/01/31 02:14:02;;;;;;;12.13;2.97;;;;;;;;;;5005629;28;20227;-68
2023/01/31 02:16:27;;;;;;;11.63;3.10;;;;;;;;;;4991888;28;20300;-70
2023/01/31 02:18:52;;;;;;;9.70;2.70;;;;;;;;;;4992443;28;20316;-70
2023/01/31 02:21:24;;;;;;;13.10;3.03;;;;;;;;;;4992333;28;20220;-69
2023/01/31 02:23:49;;;;;;;12.33;3.03;;;;;;;;;;4974365;28;20209;-70
2023/01/31 02:26:34;;;;;;;11.70;3.00;;;;;;;;;;4995736;28;20232;-70
2023/01/31 02:29:12;;;;;;;9.17;2.43;;;;;;;;;;4996073;28;20213;-69
2023/01/31 02:31:44;;;;;;;8.90;2.50;;;;;;;;;;4987487;28;20279;-70
2023/01/31 02:34:13;;;;;;;7.53;2.40;;;;;;;;;;4994585;28;20217;-70
2023/01/31 02:36:42;;;;;;;9.47;2.20;;;;;;;;;;4995105;28;20217;-69
2023/01/31 02:39:19;;;;;;;13.20;3.17;;;;;;;;;;4993503;28;20218;-69
2023/01/31 02:42:02;;;;;;;10.07;2.83;;;;;;;;;;4994990;28;20220;-69
2023/01/31 02:47:24;;;;;;;11.23;3.40;;;;;;;;;;5014751;28;20267;-69
2023/01/31 02:49:51;;;;;;;10.97;2.70;;;;;;;;;;5019329;28;20212;-70
2023/01/31 02:52:19;;;;;;;13.43;3.23;;;;;;;;;;5023313;28;20213;-69
2023/01/31 02:57:33;;;;;;;8.87;2.33;;;;;;;;;;5026651;28;20616;-69
2023/01/31 02:59:58;;;;;;;13.83;3.13;;;;;;;;;;5034152;28;20223;-69
2023/01/31 03:02:24;;;;;;;12.73;3.20;;;;;;;;;;5016703;28;20208;-69
2023/01/31 03:04:49;;;;;;;11.10;3.00;;;;;;;;;;5034961;28;20250;-69
2023/01/31 03:07:16;;;;;;;11.77;2.73;;;;;;;;;;5020335;28;20658;-70
2023/01/31 03:09:49;;;;;;;10.90;2.83;;;;;;;;;;5014669;28;20228;-69
2023/01/31 03:12:17;;;;;;;12.33;2.60;;;;;;;;;;5022109;28;20300;-69
2023/01/31 03:14:43;;;;;;;10.93;2.73;;;;;;;;;;5022292;28;20612;-69
2023/01/31 03:17:30;;;;;;;12.00;3.07;;;;;;;;;;5014337;28;20220;-69
2023/01/31 03:19:56;;;;;;;11.40;2.77;;;;;;;;;;5014089;28;20282;-69
2023/01/31 03:22:24;;;;;;;10.80;2.60;;;;;;;;;;5014231;28;20216;-69
2023/01/31 03:24:49;;;;;;;11.27;2.47;;;;;;;;;;5014437;28;20212;-70
2023/01/31 03:27:14;;;;;;;12.63;2.70;;;;;;;;;;5013742;28;20733;-69
2023/01/31 03:29:40;;;;;;;11.87;3.10;;;;;;;;;;5014641;28;20220;-69
2023/01/31 03:32:07;;;;;;;12.50;3.50;;;;;;;;;;5014120;28;20204;-69
2023/01/31 03:34:33;;;;;;;12.77;3.03;;;;;;;;;;5013547;28;20223;-69
2023/01/31 03:37:02;;;;;;;13.10;2.73;;;;;;;;;;4996455;28;20579;-69
2023/01/31 03:39:31;;;;;;;14.37;3.27;;;;;;;;;;4996392;28;20239;-69
2023/01/31 03:41:57;;;;;;;10.23;2.90;;;;;;;;;;5013745;28;20224;-69
2023/01/31 03:44:22;;;;;;;10.63;2.70;;;;;;;;;;4996217;28;20247;-70
2023/01/31 03:46:50;;;;;;;12.27;3.10;;;;;;;;;;5014316;28;20290;-70
2023/01/31 03:49:15;;;;;;;12.07;2.80;;;;;;;;;;4995624;28;20220;-70
2023/01/31 03:51:41;;;;;;;10.43;3.33;;;;;;;;;;5033192;28;20204;-70
2023/01/31 03:54:08;;;;;;;11.93;2.90;;;;;;;;;;5015630;28;20266;-69
2023/01/31 03:56:34;;;;;;;8.70;3.00;;;;;;;;;;5015524;28;20215;-70
2023/01/31 03:59:02;;;;;;;12.57;2.87;;;;;;;;;;5016063;28;20219;-70
2023/01/31 04:01:27;;;;;;;13.43;3.63;;;;;;;;;;5012402;28;20267;-70
2023/01/31 04:03:56;;;;;;;10.37;3.40;;;;;;;;;;5012903;28;20217;-70
2023/01/31 04:06:21;;;;;;;9.73;3.40;;;;;;;;;;5007598;28;20229;-70
2023/01/31 04:08:46;;;;;;;11.93;3.90;;;;;;;;;;4993315;28;20209;-69
2023/01/31 04:11:12;;;;;;;12.57;3.80;;;;;;;;;;4993669;28;20252;-70
2023/01/31 04:13:37;;;;;;;10.43;3.50;;;;;;;;;;5010514;28;20687;-70
2023/01/31 04:16:03;;;;;;;13.73;4.23;;;;;;;;;;4975984;28;20217;-69
2023/01/31 04:18:28;;;;;;;13.43;4.37;;;;;;;;;;4993911;28;20221;-70
2023/01/31 04:20:53;;;;;;;12.40;4.13;;;;;;;;;;4994183;28;20229;-70
2023/01/31 04:23:18;;;;;;;13.70;4.50;;;;;;;;;;4992648;28;20305;-70
2023/01/31 04:25:44;;;;;;;12.80;4.00;;;;;;;;;;4993863;28;20209;-71
2023/01/31 04:28:09;;;;;;;12.30;4.40;;;;;;;;;;4993649;28;20347;-70
2023/01/31 04:30:35;;;;;;;15.27;5.17;;;;;;;;;;4993074;28;20213;-70
2023/01/31 04:33:00;;;;;;;12.37;4.60;;;;;;;;;;4993900;28;20225;-70
2023/01/31 04:35:25;;;;;;;14.90;5.03;;;;;;;;;;5012714;28;20224;-71
2023/01/31 04:37:51;;;;;;;15.40;4.67;;;;;;;;;;5012821;28;20757;-71
2023/01/31 04:40:16;;;;;;;13.83;4.80;;;;;;;;;;5012797;28;20232;-70
2023/01/31 04:42:41;;;;;;;14.67;5.00;;;;;;;;;;5013368;28;20215;-71
2023/01/31 04:45:07;;;;;;;13.30;4.97;;;;;;;;;;5006400;28;20311;-69
2023/01/31 04:47:32;;;;;;;15.03;5.10;;;;;;;;;;5002672;28;20291;-70
2023/01/31 04:49:57;;;;;;;13.93;5.07;;;;;;;;;;5003250;28;20243;-70
2023/01/31 04:52:23;;;;;;;16.53;5.60;;;;;;;;;;5002653;28;20254;-70
2023/01/31 04:54:49;;;;;;;14.80;5.10;;;;;;;;;;5022247;28;20230;-70
2023/01/31 04:57:14;;;;;;;17.07;5.37;;;;;;;;;;5022535;28;20223;-70
2023/01/31 04:59:39;;;;;;;14.90;5.57;;;;;;;;;;5018770;28;20620;-70
2023/01/31 05:02:04;;;;;;;12.50;5.07;;;;;;;;;;5009973;28;20702;-70
2023/01/31 05:04:30;;;;;;;14.30;5.43;;;;;;;;;;5014121;28;20215;-70
2023/01/31 05:06:55;;;;;;;16.23;5.40;;;;;;;;;;5006551;28;20314;-70
2023/01/31 05:09:21;;;;;;;16.13;5.80;;;;;;;;;;5002522;28;20233;-70
2023/01/31 05:11:47;;;;;;;15.90;5.40;;;;;;;;;;5008864;28;20211;-70
2023/01/31 05:14:13;;;;;;;14.73;5.27;;;;;;;;;;5002113;28;20225;-70
2023/01/31 05:16:39;;;;;;;15.60;5.20;;;;;;;;;;5002765;28;20222;-70
2023/01/31 05:19:04;;;;;;;15.00;5.77;;;;;;;;;;5001743;28;20236;-70
2023/01/31 05:21:29;;;;;;;15.63;5.67;;;;;;;;;;5002111;28;20224;-70
2023/01/31 05:23:55;;;;;;;16.40;5.93;;;;;;;;;;4995255;28;20232;-70
2023/01/31 05:26:20;;;;;;;17.13;5.80;;;;;;;;;;4993503;28;20212;-70
2023/01/31 05:28:45;;;;;;;13.90;5.43;;;;;;;;;;4995778;28;20366;-70
2023/01/31 05:31:12;;;;;;;15.43;5.67;;;;;;;;;;5020970;28;20207;-69
2023/01/31 05:33:37;;;;;;;13.77;5.70;;;;;;;;;;5004440;28;20216;-70
2023/01/31 05:36:02;;;;;;;12.80;5.47;;;;;;;;;;5021659;28;20583;-70
2023/01/31 05:38:28;;;;;;;17.60;5.80;;;;;;;;;;5022474;28;20234;-70
2023/01/31 05:40:53;;;;;;;15.13;5.87;;;;;;;;;;5007086;28;20904;-70
2023/01/31 05:43:18;;;;;;;17.53;6.07;;;;;;;;;;5002332;28;20271;-70
2023/01/31 05:45:44;;;;;;;15.10;5.80;;;;;;;;;;5004889;28;20251;-70
2023/01/31 05:48:09;;;;;;;17.47;6.27;;;;;;;;;;5001416;28;20607;-69
2023/01/31 05:50:34;;;;;;;18.17;6.50;;;;;;;;;;5002760;28;20271;-70
2023/01/31 05:53:01;;;;;;;15.63;6.17;;;;;;;;;;5003327;28;20226;-71
2023/01/31 05:55:27;;;;;;;14.00;6.03;;;;;;;;;;5011210;28;20219;-70
2023/01/31 05:57:52;;;;;;;22.07;6.57;;;;;;;;;;5012539;28;20220;-70
2023/01/31 06:00:18;;;;;;;14.30;5.67;;;;;;;;;;5014320;28;20240;-70
2023/01/31 06:02:43;;;;;;;19.00;6.20;;;;;;;;;;4998034;28;20589;-70
2023/01/31 06:05:09;;;;;;;16.70;6.27;;;;;;;;;;5019601;28;20250;-70
2023/01/31 06:07:34;;;;;;;18.63;6.43;;;;;;;;;;5013193;28;20248;-70
2023/01/31 06:09:59;;;;;;;16.20;6.17;;;;;;;;;;5015233;28;20228;-70
2023/01/31 06:12:25;;;;;;;19.77;7.00;;;;;;;;;;5017020;28;20224;-70
2023/01/31 06:14:50;;;;;;;15.77;5.80;;;;;;;;;;5015856;28;20216;-70
2023/01/31 06:17:15;;;;;;;17.73;6.17;;;;;;;;;;5014590;28;20225;-70
2023/01/31 06:19:41;;;;;;;18.43;7.27;;;;;;;;;;5015829;28;20672;-70
2023/01/31 06:22:06;;;;;;;20.77;5.80;;;;;;;;;;5028185;28;20220;-69
2023/01/31 06:24:31;;;;;;;20.97;6.80;;;;;;;;;;5034932;28;20211;-71
2023/01/31 06:26:57;;;;;;;15.43;6.33;;;;;;;;;;5035588;28;20222;-70
2023/01/31 06:29:22;;;;;;;17.97;6.70;;;;;;;;;;4985131;28;20600;-70
2023/01/31 06:31:47;;;;;;;17.60;6.70;;;;;;;;;;4997544;28;20212;-70
2023/01/31 06:34:12;;;;;;;17.10;6.10;;;;;;;;;;4999192;28;20719;-70
2023/01/31 06:36:38;;;;;;;18.80;6.87;;;;;;;;;;5005465;28;20746;-70
2023/01/31 06:39:03;;;;;;;16.27;6.50;;;;;;;;;;5005231;28;20331;-69
2023/01/31 06:41:28;;;;;;;13.63;6.17;;;;;;;;;;5006409;28;20262;-70
2023/01/31 06:43:54;;;;;;;16.67;6.13;;;;;;;;;;5005389;28;20256;-70
2023/01/31 06:46:19;;;;;;;17.47;7.10;;;;;;;;;;5005082;28;20718;-70
2023/01/31 06:48:46;;;;;;;17.70;6.97;;;;;;;;;;5005880;28;20714;-71
2023/01/31 06:51:11;;;;;;;14.60;6.07;;;;;;;;;;4998739;28;20237;-70
2023/01/31 06:53:36;;;;;;;18.20;6.47;;;;;;;;;;4997676;28;20257;-70
2023/01/31 06:56:01;;;;;;;14.23;6.20;;;;;;;;;;4997518;28;20699;-70
2023/01/31 06:58:27;;;;;;;17.43;6.67;;;;;;;;;;5003174;28;20307;-71
2023/01/31 07:00:52;;;;;;;19.07;6.10;;;;;;;;;;5005057;28;20710;-70
2023/01/31 07:03:18;;;;;;;17.40;6.23;;;;;;;;;;5005352;28;20872;-70
2023/01/31 07:05:44;;;;;;;18.73;6.43;;;;;;;;;;5004877;28;20311;-70
2023/01/31 07:08:09;;;;;;;13.73;5.43;;;;;;;;;;5005139;28;20299;-70
2023/01/31 07:10:34;;;;;;;16.10;6.20;;;;;;;;;;5004426;28;20251;-70
2023/01/31 07:13:00;;;;;;;17.10;6.33;;;;;;;;;;5001123;28;20331;-70
2023/01/31 07:15:27;;;;;;;14.13;6.00;;;;;;;;;;4994190;28;20330;-71
2023/01/31 07:17:58;;;;;;;15.33;5.87;;;;;;;;;;4996846;28;20256;-70
2023/01/31 07:20:24;;;;;;;18.17;6.40;;;;;;;;;;5000385;28;20334;-70
2023/01/31 07:22:55;;;;;;;20.17;6.43;;;;;;;;;;5005009;28;20673;-70
2023/01/31 07:25:21;;;;;;;16.90;6.10;;;;;;;;;;5027015;28;20315;-69
2023/01/31 07:27:46;;;;;;;15.50;6.13;;;;;;;;;;5030465;28;20366;-72
2023/01/31 07:30:11;;;;;;;14.37;5.43;;;;;;;;;;5006311;28;20200;-70
2023/01/31 07:32:37;;;;;;;19.20;5.80;;;;;;;;;;5004484;28;20679;-71
2023/01/31 07:35:02;;;;;;;16.60;5.83;;;;;;;;;;5007481;28;20237;-69
2023/01/31 07:37:27;;;;;;;16.80;5.73;;;;;;;;;;5014328;28;20213;-70
2023/01/31 07:39:53;;;;;;;15.10;6.60;;;;;;;;;;5013150;28;20439;-72
2023/01/31 07:42:18;;;;;;;15.60;6.40;;;;;;;;;;5013362;28;20427;-75
2023/01/31 07:44:43;;;;;;;16.43;6.80;;;;;;;;;;4995299;28;20423;-73
2023/01/31 07:47:09;;;;;;;15.10;6.13;;;;;;;;;;5005177;28;20207;-70
2023/01/31 07:49:34;;;;;;;14.87;5.53;;;;;;;;;;5009437;28;20252;-72
2023/01/31 07:52:00;;;;;;;14.93;5.87;;;;;;;;;;5001925;28;20215;-71
2023/01/31 07:54:25;;;;;;;17.83;6.50;;;;;;;;;;4995392;28;20220;-70
2023/01/31 07:56:50;;;;;;;14.93;6.17;;;;;;;;;;5014059;28;20722;-72
2023/01/31 07:59:16;;;;;;;16.37;5.80;;;;;;;;;;5013323;28;20228;-70
2023/01/31 08:04:25;;;;;;;14.10;6.70;;;;;;;;;;5012352;28;20466;-68
2023/01/31 08:06:52;;;;;;;16.60;6.13;;;;;;;;;;5023771;28;20211;-68
2023/01/31 08:09:17;;;;;;;13.37;5.10;;;;;;;;;;5032120;28;20326;-68
2023/01/31 08:11:42;;;;;;;15.10;6.03;;;;;;;;;;5023211;28;20307;-68
2023/01/31 08:14:08;;;;;;;16.57;7.73;;;;;;;;;;5006039;28;20205;-66
2023/01/31 08:16:35;;;;;;;16.80;7.07;;;;;;;;;;5003051;28;20209;-68
2023/01/31 08:19:00;;;;;;;14.77;5.20;;;;;;;;;;5005156;28;20232;-66
2023/01/31 08:21:25;;;;;;;14.47;5.10;;;;;;;;;;5005793;28;20216;-68
2023/01/31 08:23:51;;;;;;;12.47;4.83;;;;;;;;;;5011052;28;20213;-70
2023/01/31 08:26:17;;;;;;;13.60;5.20;;;;;;;;;;5003351;28;20205;-71
2023/01/31 08:28:43;;;;;;;12.93;5.37;;;;;;;;;;4995013;28;20208;-70
2023/01/31 08:31:12;;;;;;;16.00;5.50;;;;;;;;;;4991346;28;20224;-69
2023/01/31 08:33:37;;;;;;;11.63;5.20;;;;;;;;;;5008968;28;20216;-67
2023/01/31 08:36:08;;;;;;;12.03;5.13;;;;;;;;;;5025516;28;20211;-71
2023/01/31 08:38:34;;;;;;;12.67;5.40;;;;;;;;;;5013230;28;20233;-71
2023/01/31 08:40:59;;;;;;;14.63;4.70;;;;;;;;;;5013141;28;20224;-69
2023/01/31 08:43:24;;;;;;;13.10;4.77;;;;;;;;;;5011741;28;20212;-70
2023/01/31 08:45:50;;;;;;;10.00;4.73;;;;;;;;;;5012967;28;20596;-69
2023/01/31 08:48:15;;;;;;;10.50;4.47;;;;;;;;;;5012728;28;20212;-70
2023/01/31 08:50:40;;;;;;;13.27;4.77;;;;;;;;;;5023549;28;20291;-70
2023/01/31 08:53:05;;;;;;;14.03;4.67;;;;;;;;;;5032183;28;20301;-69
2023/01/31 08:55:33;;;;;;;12.00;5.23;;;;;;;;;;5032867;28;20306;-69
2023/01/31 08:57:58;;;;;;;13.67;4.70;;;;;;;;;;5031910;28;20695;-66
2023/01/31 09:00:24;;;;;;;12.73;4.57;;;;;;;;;;5032161;28;20247;-67
2023/01/31 09:02:50;;;;;;;14.77;5.70;;;;;;;;;;5032633;28;20204;-69
2023/01/31 09:05:15;;;;;;;11.97;4.30;;;;;;;;;;5013876;28;20287;-69
2023/01/31 09:07:40;;;;;;;13.47;4.93;;;;;;;;;;5016142;28;20291;-68
2023/01/31 09:10:06;;;;;;;16.17;5.07;;;;;;;;;;5012459;28;20239;-68
2023/01/31 09:12:32;;;;;;;16.13;4.77;;;;;;;;;;5012167;28;20208;-70
2023/01/31 09:14:57;;;;;;;11.90;4.93;;;;;;;;;;5025951;28;20223;-70
2023/01/31 09:17:23;;;;;;;10.17;4.57;;;;;;;;;;5031789;28;20212;-68
2023/01/31 09:19:49;;;;;;;11.83;4.53;;;;;;;;;;5026640;28;20223;-69
2023/01/31 09:22:14;;;;;;;12.77;4.27;;;;;;;;;;5012277;28;20216;-69
2023/01/31 09:24:40;;;;;;;12.57;4.50;;;;;;;;;;5012529;28;20212;-69
2023/01/31 09:27:05;;;;;;;11.87;4.40;;;;;;;;;;5011450;28;20218;-69
2023/01/31 09:29:30;;;;;;;11.53;4.63;;;;;;;;;;5012722;28;20216;-68
2023/01/31 09:31:56;;;;;;;14.03;4.40;;;;;;;;;;5012429;28;20224;-69
2023/01/31 09:34:21;;;;;;;11.57;4.77;;;;;;;;;;5010834;28;20631;-66
2023/01/31 09:36:47;;;;;;;12.93;4.70;;;;;;;;;;5016163;28;20262;-66
2023/01/31 09:39:12;;;;;;;16.27;4.67;;;;;;;;;;5015303;28;20231;-66
2023/01/31 09:41:40;;;;;;;13.37;4.40;;;;;;;;;;5022196;28;20239;-66
2023/01/31 09:44:08;;;;;;;15.63;4.83;;;;;;;;;;5014148;28;20246;-65
2023/01/31 09:46:35;;;;;;;13.87;4.57;;;;;;;;;;5014030;28;20212;-67
2023/01/31 09:49:01;;;;;;;10.87;4.47;;;;;;;;;;5014138;28;20708;-66
2023/01/31 09:51:26;;;;;;;11.93;4.50;;;;;;;;;;5014880;28;20220;-66
2023/01/31 09:53:51;;;;;;;12.33;4.70;;;;;;;;;;5011270;28;20216;-66
2023/01/31 09:56:23;;;;;;;10.27;3.97;;;;;;;;;;4994380;28;20216;-66
2023/01/31 09:58:56;;;;;;;11.50;4.20;;;;;;;;;;5012306;28;20568;-68
2023/01/31 10:01:23;;;;;;;15.27;5.30;;;;;;;;;;4992883;28;20871;-67
2023/01/31 10:04:01;;;;;;;15.07;4.67;;;;;;;;;;4994646;28;20204;-66
2023/01/31 10:06:29;;;;;;;12.83;4.37;;;;;;;;;;5018586;28;20203;-69
2023/01/31 10:09:02;;;;;;;12.37;4.67;;;;;;;;;;5013181;28;20208;-69
2023/01/31 10:11:29;;;;;;;11.53;4.30;;;;;;;;;;5014091;28;20302;-65
2023/01/31 10:13:56;;;;;;;12.80;4.33;;;;;;;;;;5027136;28;20292;-67
2023/01/31 10:16:35;;;;;;;12.03;4.43;;;;;;;;;;5011217;28;20258;-66
2023/01/31 10:19:02;;;;;;;12.80;4.70;;;;;;;;;;4994256;28;20232;-66
2023/01/31 10:21:29;;;;;;;13.57;4.63;;;;;;;;;;5011581;28;20219;-67
2023/01/31 10:23:56;;;;;;;13.00;4.23;;;;;;;;;;4994410;28;20212;-67
2023/01/31 10:26:22;;;;;;;13.13;4.17;;;;;;;;;;5011584;28;20213;-67
2023/01/31 10:28:51;;;;;;;13.00;4.10;;;;;;;;;;4993815;28;20576;-67
2023/01/31 10:31:25;;;;;;;14.97;5.00;;;;;;;;;;5011840;28;20220;-68
2023/01/31 10:33:51;;;;;;;12.83;4.53;;;;;;;;;;4994414;28;20216;-69
2023/01/31 10:36:19;;;;;;;15.77;4.80;;;;;;;;;;5013657;28;20700;-68
2023/01/31 10:38:51;;;;;;;10.20;3.97;;;;;;;;;;5011594;28;20649;-69
2023/01/31 10:41:18;;;;;;;10.93;4.20;;;;;;;;;;4994111;28;20225;-67
2023/01/31 10:43:46;;;;;;;9.87;4.00;;;;;;;;;;5011173;28;20683;-68
2023/01/31 10:46:11;;;;;;;11.40;4.33;;;;;;;;;;5012280;28;20718;-66
2023/01/31 10:48:36;;;;;;;13.50;3.97;;;;;;;;;;5015225;28;20213;-67
2023/01/31 10:51:15;;;;;;;11.67;4.00;;;;;;;;;;5028135;28;20212;-66
2023/01/31 10:53:45;;;;;;;11.03;3.97;;;;;;;;;;5017295;28;20222;-67
2023/01/31 10:56:15;;;;;;;10.77;3.93;;;;;;;;;;5034689;28;20652;-66
2023/01/31 10:58:41;;;;;;;10.60;3.70;;;;;;;;;;5016369;28;20231;-67
2023/01/31 11:01:10;;;;;;;10.27;4.10;;;;;;;;;;5016892;28;20705;-67
2023/01/31 11:03:36;;;;;;;10.30;3.87;;;;;;;;;;5033978;28;20212;-66
2023/01/31 11:06:01;;;;;;;10.33;3.70;;;;;;;;;;5031227;28;20215;-65
2023/01/31 11:08:30;;;;;;;12.27;4.20;;;;;;;;;;5014556;28;20223;-66
2023/01/31 11:10:56;;;;;;;10.13;4.30;;;;;;;;;;5013977;28;20224;-66
2023/01/31 11:13:22;;;;;;;14.67;4.20;;;;;;;;;;5014576;28;20558;-66
2023/01/31 11:15:47;;;;;;;13.13;4.10;;;;;;;;;;5034605;28;20219;-66
2023/01/31 11:18:15;;;;;;;12.70;4.00;;;;;;;;;;5033532;28;20218;-66
2023/01/31 11:20:43;;;;;;;11.53;3.70;;;;;;;;;;5016779;28;20610;-67
2023/01/31 11:23:09;;;;;;;11.67;3.93;;;;;;;;;;5016049;28;20224;-66
2023/01/31 11:25:34;;;;;;;10.40;3.60;;;;;;;;;;5016065;28;20216;-66
2023/01/31 11:28:00;;;;;;;12.17;4.00;;;;;;;;;;5034174;28;20207;-67
2023/01/31 11:30:27;;;;;;;13.87;4.03;;;;;;;;;;5016271;28;20208;-66
2023/01/31 11:32:53;;;;;;;13.97;4.37;;;;;;;;;;5033694;28;20283;-67
2023/01/31 11:35:18;;;;;;;10.40;3.83;;;;;;;;;;5033376;28;20303;-67
2023/01/31 11:37:49;;;;;;;9.07;4.03;;;;;;;;;;5014244;28;20232;-67
2023/01/31 11:40:14;;;;;;;11.87;4.50;;;;;;;;;;5013047;28;20221;-66
2023/01/31 11:42:51;;;;;;;12.60;4.50;;;;;;;;;;5014139;28;20213;-67
2023/01/31 11:45:18;;;;;;;11.07;4.57;;;;;;;;;;4994306;28;20209;-66
2023/01/31 11:47:50;;;;;;;12.67;4.47;;;;;;;;;;5013893;28;20243;-67
2023/01/31 11:50:19;;;;;;;14.33;5.33;;;;;;;;;;5021238;28;20212;-66
2023/01/31 11:52:44;;;;;;;14.77;6.83;;;;;;;;;;5033910;28;20212;-66
2023/01/31 11:55:11;;;;;;;24.80;12.63;;;;;;;;;;5032556;28;20576;-66
2023/01/31 11:57:38;;;;;;;36.20;16.93;;;;;;;;;;5016029;28;20734;-66
2023/01/31 12:00:04;;;;;;;16.23;5.87;;;;;;;;;;5032376;28;20223;-66
2023/01/31 12:02:33;;;;;;;18.20;7.37;;;;;;;;;;5016100;28;20279;-66
2023/01/31 12:04:59;;;;;;;20.25;8.05;;;;;;;;;;5033419;28;20207;-66
2023/01/31 12:07:27;;;;;;;15.03;5.00;;;;;;;;;;5000586;28;20238;-66
2023/01/31 12:09:53;;;;;;;16.30;4.93;;;;;;;;;;5001897;28;20221;-66
2023/01/31 12:12:30;;;;;;;11.07;4.43;;;;;;;;;;5012415;28;20588;-66
2023/01/31 12:15:02;;;;;;;13.53;4.80;;;;;;;;;;5026036;28;20613;-66
2023/01/31 12:17:28;;;;;;;10.10;3.93;;;;;;;;;;5033400;28;20216;-66
2023/01/31 12:19:58;;;;;;;10.70;4.50;;;;;;;;;;5032107;28;20216;-66
2023/01/31 12:22:25;;;;;;;12.50;4.63;;;;;;;;;;5030871;28;20294;-65
2023/01/31 12:24:55;;;;;;;10.10;4.40;;;;;;;;;;5032064;28;20243;-66
2023/01/31 12:27:26;;;;;;;9.90;4.23;;;;;;;;;;5031716;28;20215;-66
2023/01/31 12:30:01;;;;;;;10.77;4.10;;;;;;;;;;5032426;28;20216;-66
2023/01/31 12:32:44;;;;;;;10.13;4.30;;;;;;;;;;5032865;28;20237;-66
2023/01/31 12:35:15;;;;;;;10.00;4.60;;;;;;;;;;5032018;28;20780;-66
2023/01/31 12:37:47;;;;;;;10.47;4.10;;;;;;;;;;5026049;28;20204;-66
2023/01/31 12:40:34;;;;;;;9.87;3.53;;;;;;;;;;5032609;28;20232;-66
2023/01/31 12:43:00;;;;;;;7.10;3.10;;;;;;;;;;5031184;28;20688;-67
2023/01/31 12:45:44;;;;;;;8.87;3.80;;;;;;;;;;5031332;28;20211;-66
2023/01/31 12:48:16;;;;;;;6.90;3.23;;;;;;;;;;5032659;28;20215;-66
2023/01/31 12:50:44;;;;;;;7.70;3.40;;;;;;;;;;5032055;28;20207;-66
2023/01/31 12:53:28;;;;;;;9.60;3.53;;;;;;;;;;5031122;28;20269;-64
2023/01/31 12:56:12;;;;;;;8.70;3.10;;;;;;;;;;5032734;28;20218;-65
2023/01/31 12:58:43;;;;;;;10.47;4.40;;;;;;;;;;5031455;28;20214;-65
2023/01/31 13:01:10;;;;;;;10.20;4.60;;;;;;;;;;5032155;28;20219;-65
2023/01/31 13:03:47;;;;;;;12.00;5.83;;;;;;;;;;5030761;28;20216;-66
2023/01/31 13:06:14;;;;;;;9.00;3.97;;;;;;;;;;5026383;28;20207;-61
2023/01/31 13:08:42;;;;;;;12.30;7.43;;;;;;;;;;5011199;28;20212;-65
2023/01/31 13:11:10;;;;;;;10.82;5.22;;;;;;;;;;5010172;28;20363;-66
2023/01/31 13:13:41;;;;;;;7.30;3.20;;;;;;;;;;5013846;28;20220;-66
2023/01/31 13:16:16;;;;;;;14.63;8.03;;;;;;;;;;5030615;28;20218;-67
2023/01/31 13:18:42;;;;;;;12.87;6.20;;;;;;;;;;5030725;28;20227;-66
2023/01/31 13:21:08;;;;;;;9.23;5.60;;;;;;;;;;5032211;28;20722;-65
2023/01/31 13:23:35;;;;;;;11.33;6.33;;;;;;;;;;5031528;28;20670;-66
2023/01/31 13:26:07;;;;;;;9.57;4.43;;;;;;;;;;5030503;28;20212;-67
2023/01/31 13:28:35;;;;;;;10.77;4.77;;;;;;;;;;5032288;28;20669;-68
2023/01/31 13:31:03;;;;;;;12.23;6.27;;;;;;;;;;5031739;28;20212;-67
2023/01/31 13:33:30;;;;;;;10.48;4.90;;;;;;;;;;5030405;28;20295;-69
2023/01/31 13:35:57;;;;;;;10.93;4.17;;;;;;;;;;5025616;28;20209;-70
2023/01/31 13:38:22;;;;;;;14.40;6.60;;;;;;;;;;5030954;28;20210;-69
2023/01/31 13:40:50;;;;;;;10.17;4.20;;;;;;;;;;5030943;28;20219;-69
2023/01/31 13:43:15;;;;;;;17.40;8.77;;;;;;;;;;5032055;28;20216;-69
2023/01/31 13:45:42;;;;;;;12.03;5.37;;;;;;;;;;5031274;28;20216;-69
2023/01/31 13:48:09;;;;;;;17.10;7.37;;;;;;;;;;5031823;28;20216;-69
2023/01/31 13:50:37;;;;;;;9.00;3.50;;;;;;;;;;5030942;28;20247;-69
2023/01/31 13:53:03;;;;;;;10.00;4.53;;;;;;;;;;5030747;28;20558;-69
2023/01/31 13:55:28;;;;;;;10.67;5.47;;;;;;;;;;5032026;28;20643;-69
2023/01/31 13:57:56;;;;;;;20.30;12.85;;;;;;;;;;5032188;28;20219;-69
2023/01/31 14:00:28;;;;;;;15.50;5.73;;;;;;;;;;5029720;28;20235;-69
2023/01/31 14:03:04;;;;;;;11.63;4.65;;;;;;;;;;5030964;28;20211;-69
2023/01/31 14:05:41;;;;;;;13.70;4.90;;;;;;;;;;5031898;28;20218;-69
2023/01/31 14:08:25;;;;;;;12.67;4.40;;;;;;;;;;5011171;28;20217;-68
2023/01/31 14:10:51;;;;;;;13.33;6.70;;;;;;;;;;4995400;28;20228;-68
2023/01/31 14:13:24;;;;;;;12.20;5.30;;;;;;;;;;4992321;28;20578;-68
2023/01/31 14:15:50;;;;;;;13.60;4.78;;;;;;;;;;4991919;28;20217;-68
2023/01/31 14:18:33;;;;;;;14.40;4.43;;;;;;;;;;4992303;28;20267;-68
2023/01/31 14:21:19;;;;;;;10.83;4.50;;;;;;;;;;4993978;28;20302;-68
2023/01/31 14:23:45;;;;;;;11.40;3.97;;;;;;;;;;4995866;28;20221;-68
2023/01/31 14:26:32;;;;;;;11.00;4.37;;;;;;;;;;4995631;28;20210;-68
2023/01/31 14:28:57;;;;;;;13.63;4.60;;;;;;;;;;4995394;28;20216;-68
2023/01/31 14:31:22;;;;;;;10.90;4.00;;;;;;;;;;4995549;28;20213;-69
2023/01/31 14:33:49;;;;;;;15.68;6.93;;;;;;;;;;4995972;28;20201;-69
2023/01/31 14:36:18;;;;;;;11.73;4.63;;;;;;;;;;4984742;28;20550;-68
2023/01/31 14:38:47;;;;;;;13.63;6.50;;;;;;;;;;4998087;28;20220;-68
2023/01/31 14:41:16;;;;;;;11.30;3.63;;;;;;;;;;4997711;28;20227;-68